Friday, January 18, 2019, 2:36 AM EST
Back to Local

KEEN, Keene, Dillant-hopkins Airport

Location: Keene, NH, United States Lat: 42.9
Local Time: 2:36 AM EST ( 7:36 GMT) Lon: -72.267
Time Zone: US/Eastern Elev: 488 ft

Show me the last for .
Show Coded

Time T Td Feel RH Dir Speed Gust Alt SLP Vis Weather Sky Remarks
2019-01-18 01:56 20 11 - 67 - Calm - 30.22 30.28 10 BKN060 BKN075 OVC085 None
2019-01-18 00:56 19 10 - 67 - Calm - 30.22 30.28 10 BKN075 OVC100 6-hr Min Temp (1am): 18.0°F
6-hr Max Temp (1am): 19.9°F
2019-01-17 23:56 19 10 - 67 - Calm - 30.24 30.31 10 BKN080 BKN090 OVC110 24-hr Min Temp (12am): 6.1°F
24-hr Max Temp (12am): 25.0°F
2019-01-17 22:56 19 9 - 64 - Calm - 30.28 30.34 10 BKN110 None
2019-01-17 21:56 19 9 - 64 - Calm - 30.27 30.34 10 SCT120 None
2019-01-17 20:56 19 7 - 58 - Calm - 30.28 30.34 10 CLR None
2019-01-17 19:56 19 7 14 58 210° 3 - 30.29 30.35 10 CLR None
2019-01-17 18:56 20 7 - 56 - Calm - 30.29 30.36 10 CLR 6-hr Precip Total (7pm): 0.00"
6-hr Min Temp (7pm): 19.9°F
6-hr Max Temp (7pm): 25.0°F
2019-01-17 17:56 20 5 - 51 - Calm - 30.29 30.35 10 BKN120 None
2019-01-17 16:56 22 0 - 37 - Calm - 30.29 30.35 10 CLR 1-hr Precip Total: Trace
2019-01-17 15:56 24 -4 - 28 - Calm - 30.29 30.35 10 CLR None
2019-01-17 14:56 24 -5 20 26 50° 3 - 30.30 30.37 10 CLR None
2019-01-17 13:56 23 -4 18 29 40° 3 - 30.32 30.38 10 CLR None
2019-01-17 12:56 21 -5 - 30 - Calm - 30.33 30.40 10 CLR 1-hr Precip Total: Trace
6-hr Precip Total (1pm): 0.00"
6-hr Min Temp (1pm): 6.1°F
6-hr Max Temp (1pm): 21.0°F
2019-01-17 11:56 19 -4 11 35 350° 6 - 30.37 30.43 10 CLR 1-hr Precip Total: Trace
2019-01-17 10:56 16 -3 5 42 360° 8 - 30.40 30.46 10 CLR None
2019-01-17 09:56 13 -1 - 53 - Calm - 30.42 30.48 10 CLR None
2019-01-17 08:56 11 1 5 63 10° 3 - 30.40 30.47 10 CLR None
2019-01-17 07:56 6 1 - 79 - Calm - 30.38 30.44 10 CLR None
2019-01-17 06:56 7 1 - 75 - Calm - 30.36 30.42 10 CLR 6-hr Min Temp (7am): 7.0°F
6-hr Max Temp (7am): 18.0°F
2019-01-17 05:56 9 1 - 69 - Calm - 30.33 30.40 10 CLR None
2019-01-17 04:56 12 0 4 57 330° 5 - 30.32 30.38 10 CLR None
2019-01-17 03:56 13 1 2 58 340° 8 - 30.30 30.36 10 CLR None
2019-01-17 02:56 14 2 2 57 360° 9 - 30.28 30.34 10 CLR None

Support USWX by starting your Amazon purchase here.